Time;durP1;ratioP1;P1;durP2;ratioP2;P2;SDS_P1;SDS_P2;PMS_P1;PMS_P2;Temp;Humidity;BMP_temperature;BMP_pressure;BME280_temperature;BME280_humidity;BME280_pressure;Samples;Min_cycle;Max_cycle;Signal;HPM_P1;HPM_P2
2023/08/13 00:00:45;;;;;;;13.00;3.17;;;20.00;17.60;;;;;;4960122;28;20291;-84
2023/08/13 00:03:10;;;;;;;6.27;2.97;;;20.00;29.00;;;;;;4958256;28;20198;-85
2023/08/13 00:05:36;;;;;;;5.07;2.80;;;20.00;56.80;;;;;;4961209;28;20199;-84
2023/08/13 00:08:01;;;;;;;8.23;3.60;;;20.00;92.90;;;;;;4958954;28;20211;-84
2023/08/13 00:10:27;;;;;;;8.30;3.63;;;20.00;99.90;;;;;;4962379;28;20779;-85
2023/08/13 00:12:52;;;;;;;8.10;3.40;;;20.00;99.90;;;;;;4959009;28;20232;-85
2023/08/13 00:15:18;;;;;;;4.17;2.80;;;19.90;99.90;;;;;;4966772;28;20190;-85
2023/08/13 00:17:43;;;;;;;8.80;3.40;;;19.90;99.90;;;;;;4963457;28;20203;-84
2023/08/13 00:20:10;;;;;;;6.53;2.90;;;19.90;99.90;;;;;;4961348;28;20211;-85
2023/08/13 00:22:35;;;;;;;6.40;3.53;;;19.80;99.90;;;;;;4965683;28;20190;-85
2023/08/13 00:25:01;;;;;;;6.20;3.33;;;19.80;99.90;;;;;;4961336;28;20532;-84
2023/08/13 00:27:26;;;;;;;6.07;3.77;;;19.80;99.90;;;;;;4967895;28;20203;-84
2023/08/13 00:29:52;;;;;;;11.87;3.77;;;19.80;99.90;;;;;;4963071;28;20283;-85
2023/08/13 00:32:17;;;;;;;18.60;4.00;;;19.80;99.90;;;;;;4962492;28;20193;-84
2023/08/13 00:34:43;;;;;;;7.77;3.63;;;19.80;1.00;;;;;;4965723;28;20271;-85
2023/08/13 00:37:08;;;;;;;13.23;5.13;;;19.80;1.00;;;;;;4967306;28;20564;-84
2023/08/13 00:39:34;;;;;;;6.00;4.40;;;19.80;99.90;;;;;;4966654;28;20218;-84
2023/08/13 00:41:59;;;;;;;9.30;4.10;;;19.80;99.90;;;;;;4969034;28;20250;-86
2023/08/13 00:44:25;;;;;;;6.80;3.50;;;19.70;99.90;;;;;;4969201;28;20192;-86
2023/08/13 00:46:50;;;;;;;8.57;3.70;;;19.70;99.90;;;;;;4966934;28;20231;-85
2023/08/13 00:49:16;;;;;;;9.80;3.80;;;19.70;99.90;;;;;;4964705;28;20613;-86
2023/08/13 00:51:42;;;;;;;7.67;3.70;;;19.60;99.90;;;;;;4966832;28;20198;-86
2023/08/13 00:54:08;;;;;;;7.43;3.70;;;19.60;99.90;;;;;;4970057;28;20193;-86
2023/08/13 00:56:35;;;;;;;11.23;4.40;;;19.60;99.90;;;;;;4967269;28;20478;-86
2023/08/13 00:59:02;;;;;;;5.43;3.13;;;19.50;99.90;;;;;;4962490;28;20876;-84
2023/08/13 01:01:28;;;;;;;8.60;4.30;;;19.50;99.90;;;;;;4967388;28;20451;-85
2023/08/13 01:03:54;;;;;;;8.50;3.40;;;19.40;99.90;;;;;;4963182;28;20499;-84
2023/08/13 01:06:33;;;;;;;6.90;3.50;;;19.40;1.00;;;;;;4961496;28;20188;-84
2023/08/13 01:09:13;;;;;;;7.83;3.30;;;19.40;1.00;;;;;;4965414;28;20259;-85
2023/08/13 01:11:44;;;;;;;7.50;3.37;;;19.30;1.00;;;;;;4984441;28;20522;-85
2023/08/13 01:14:16;;;;;;;8.10;3.83;;;19.30;1.00;;;;;;4965594;28;20902;-85
2023/08/13 01:16:43;;;;;;;8.33;3.97;;;19.30;1.00;;;;;;4963919;28;20443;-85
2023/08/13 01:19:12;;;;;;;7.77;4.00;;;19.30;1.00;;;;;;4971678;28;21002;-86
2023/08/13 01:21:38;;;;;;;8.80;3.30;;;19.30;1.00;;;;;;4973141;28;20534;-85
2023/08/13 01:24:04;;;;;;;11.20;3.83;;;19.20;1.00;;;;;;4966864;28;20465;-86
2023/08/13 01:26:37;;;;;;;12.90;3.60;;;19.20;1.00;;;;;;4970037;28;20191;-86
2023/08/13 01:29:18;;;;;;;8.20;3.90;;;19.20;1.00;;;;;;4972429;28;21120;-86
2023/08/13 01:31:48;;;;;;;8.47;4.10;;;19.10;1.00;;;;;;4972036;28;20439;-85
2023/08/13 01:34:15;;;;;;;7.10;3.67;;;19.10;1.00;;;;;;4976312;28;20449;-85
2023/08/13 01:36:42;;;;;;;9.30;3.70;;;19.10;1.00;;;;;;4976664;28;20484;-84
2023/08/13 01:39:08;;;;;;;7.77;3.40;;;19.10;1.00;;;;;;4976691;28;20459;-84
2023/08/13 01:41:47;;;;;;;7.60;3.63;;;19.00;1.00;;;;;;4968982;28;21015;-85
2023/08/13 01:44:13;;;;;;;9.83;4.20;;;19.00;1.00;;;;;;4971617;28;20571;-83
2023/08/13 01:46:38;;;;;;;7.67;3.47;;;19.00;4.40;;;;;;4971621;28;20469;-84
2023/08/13 01:49:04;;;;;;;8.10;4.10;;;18.90;27.40;;;;;;4967349;28;20220;-85
2023/08/13 01:51:29;;;;;;;15.83;4.30;;;18.90;85.80;;;;;;4991538;28;20275;-85
2023/08/13 01:53:55;;;;;;;6.13;3.00;;;18.80;99.90;;;;;;4975535;28;20188;-85
2023/08/13 01:56:21;;;;;;;6.90;3.57;;;18.80;99.90;;;;;;4979536;28;20188;-85
2023/08/13 01:58:46;;;;;;;7.70;3.00;;;18.70;99.90;;;;;;4971041;28;20184;-85
2023/08/13 02:01:12;;;;;;;7.30;3.20;;;18.70;99.90;;;;;;4967967;28;20192;-84
2023/08/13 02:03:37;;;;;;;6.27;3.47;;;18.60;99.90;;;;;;4972719;28;20182;-85
2023/08/13 02:06:03;;;;;;;7.90;3.93;;;18.60;99.90;;;;;;4976846;28;20245;-85
2023/08/13 02:08:28;;;;;;;7.93;3.67;;;18.60;1.00;;;;;;4973040;28;20208;-85
2023/08/13 02:10:56;;;;;;;9.27;4.10;;;18.50;1.00;;;;;;4974741;28;20203;-85
2023/08/13 02:13:21;;;;;;;8.37;3.13;;;18.50;1.00;;;;;;4972770;28;20187;-84
2023/08/13 02:15:47;;;;;;;10.17;3.33;;;18.50;1.00;;;;;;4963362;28;20436;-86
2023/08/13 02:18:12;;;;;;;6.10;3.10;;;18.50;1.00;;;;;;4978450;28;20184;-86
2023/08/13 02:20:38;;;;;;;8.37;3.60;;;18.40;1.00;;;;;;4975480;28;20210;-85
2023/08/13 02:23:04;;;;;;;5.50;3.30;;;18.40;69.20;;;;;;4982445;28;20200;-85
2023/08/13 02:25:29;;;;;;;8.63;4.40;;;18.30;99.90;;;;;;4978281;28;20187;-86
2023/08/13 02:27:55;;;;;;;8.27;3.10;;;18.30;99.90;;;;;;4980860;28;20227;-85
2023/08/13 02:30:20;;;;;;;6.90;3.20;;;18.30;99.90;;;;;;4974394;28;20200;-84
2023/08/13 02:32:46;;;;;;;7.47;3.50;;;18.20;1.00;;;;;;4968704;28;20324;-86
2023/08/13 02:35:11;;;;;;;10.23;4.53;;;18.20;1.00;;;;;;4984144;28;20677;-85
2023/08/13 02:37:37;;;;;;;11.77;4.13;;;18.20;1.00;;;;;;4971284;28;20278;-85
2023/08/13 02:40:06;;;;;;;11.57;4.63;;;18.20;1.00;;;;;;4978142;28;20222;-86
2023/08/13 02:42:32;;;;;;;11.70;3.20;;;18.20;1.00;;;;;;4978792;28;21292;-85
2023/08/13 02:44:57;;;;;;;10.73;3.43;;;18.10;1.00;;;;;;4977840;28;20461;-84
2023/08/13 02:47:23;;;;;;;7.60;3.80;;;18.10;1.00;;;;;;4975602;28;20481;-85
2023/08/13 02:49:49;;;;;;;6.67;4.00;;;18.10;1.00;;;;;;4967337;28;20271;-84
2023/08/13 02:52:15;;;;;;;9.80;3.57;;;18.10;1.00;;;;;;4969530;28;21161;-85
2023/08/13 02:54:41;;;;;;;7.53;4.33;;;18.10;1.00;;;;;;4973039;28;20686;-85
2023/08/13 02:57:06;;;;;;;16.73;4.30;;;18.00;1.00;;;;;;4970154;28;20487;-85
2023/08/13 02:59:32;;;;;;;9.07;3.40;;;18.00;1.00;;;;;;4974661;28;20214;-86
2023/08/13 03:01:57;;;;;;;9.67;3.80;;;18.00;1.00;;;;;;4982712;28;20225;-84
2023/08/13 03:04:23;;;;;;;7.90;3.80;;;18.00;1.00;;;;;;4991315;28;20206;-84
2023/08/13 03:06:48;;;;;;;6.93;3.13;;;17.90;1.00;;;;;;4965056;28;20250;-85
2023/08/13 03:09:21;;;;;;;17.70;4.60;;;17.90;60.10;;;;;;4967919;28;20209;-84
2023/08/13 03:11:48;;;;;;;8.10;3.23;;;17.90;68.80;;;;;;4966829;28;20195;-85
2023/08/13 03:14:13;;;;;;;7.13;3.13;;;17.90;53.00;;;;;;4972609;28;20449;-85
2023/08/13 03:16:39;;;;;;;9.63;3.60;;;17.90;49.80;;;;;;4955580;28;20933;-85
2023/08/13 03:19:04;;;;;;;6.87;3.50;;;17.90;99.90;;;;;;4974761;28;20637;-84
2023/08/13 03:21:30;;;;;;;8.90;3.20;;;17.80;99.90;;;;;;4967952;28;20283;-85
2023/08/13 03:23:56;;;;;;;10.27;3.80;;;17.80;99.90;;;;;;4962643;28;20188;-84
2023/08/13 03:26:21;;;;;;;7.43;3.73;;;17.80;99.90;;;;;;4970223;28;20180;-83
2023/08/13 03:28:47;;;;;;;11.00;4.10;;;17.80;99.90;;;;;;4969996;28;20222;-86
2023/08/13 03:31:12;;;;;;;7.70;4.10;;;17.70;99.90;;;;;;4974415;28;20182;-84
2023/08/13 03:33:38;;;;;;;8.63;3.43;;;17.70;99.90;;;;;;4990002;28;20271;-84
2023/08/13 03:36:04;;;;;;;8.70;3.20;;;17.70;99.90;;;;;;4978554;28;20198;-85
2023/08/13 03:38:29;;;;;;;7.87;3.10;;;17.70;99.90;;;;;;4990535;28;20311;-85
2023/08/13 03:40:56;;;;;;;8.90;3.70;;;17.70;99.90;;;;;;4959336;28;20502;-86
2023/08/13 03:43:21;;;;;;;9.43;3.53;;;17.60;99.90;;;;;;4966935;28;20246;-84
2023/08/13 03:45:47;;;;;;;9.47;4.07;;;17.60;99.90;;;;;;4961446;28;20984;-85
2023/08/13 03:48:13;;;;;;;12.93;3.97;;;17.60;99.90;;;;;;4972382;28;20215;-84
2023/08/13 03:50:42;;;;;;;11.53;3.73;;;17.60;1.00;;;;;;4979635;28;20196;-85
2023/08/13 03:53:08;;;;;;;7.60;3.83;;;17.50;1.00;;;;;;4973475;28;20199;-86
2023/08/13 03:55:35;;;;;;;11.70;4.17;;;17.50;1.00;;;;;;4981275;28;20523;-84
2023/08/13 03:58:00;;;;;;;5.30;4.10;;;17.40;83.90;;;;;;4978249;28;20450;-85
2023/08/13 04:00:26;;;;;;;10.10;3.77;;;17.40;99.90;;;;;;4968671;28;20483;-86
2023/08/13 04:02:51;;;;;;;8.13;3.97;;;17.40;1.00;;;;;;4980335;28;20199;-85
2023/08/13 04:05:17;;;;;;;6.67;3.80;;;17.40;1.00;;;;;;4980518;28;20193;-85
2023/08/13 04:07:42;;;;;;;8.67;3.40;;;17.30;1.00;;;;;;4973878;28;20219;-86
2023/08/13 04:10:08;;;;;;;13.57;4.43;;;17.30;1.00;;;;;;4974160;28;20211;-84
2023/08/13 04:12:34;;;;;;;8.30;3.90;;;17.30;40.80;;;;;;4967992;28;20618;-85
2023/08/13 04:14:59;;;;;;;11.67;5.13;;;17.30;99.90;;;;;;4960036;28;20433;-84
2023/08/13 04:17:25;;;;;;;8.33;3.77;;;17.30;99.90;;;;;;4968816;28;20695;-86
2023/08/13 04:19:50;;;;;;;10.33;4.13;;;17.30;99.90;;;;;;4972262;28;20201;-84
2023/08/13 04:22:16;;;;;;;9.93;4.33;;;17.20;1.00;;;;;;4974746;28;20309;-85
2023/08/13 04:24:42;;;;;;;8.60;3.70;;;17.20;1.00;;;;;;4986735;28;20334;-86
2023/08/13 04:27:07;;;;;;;10.40;4.37;;;17.20;1.00;;;;;;4970505;28;20244;-85
2023/08/13 04:29:33;;;;;;;6.10;3.33;;;17.20;1.00;;;;;;4992060;28;20211;-85
2023/08/13 04:31:58;;;;;;;8.77;3.50;;;17.20;1.00;;;;;;4974053;28;20258;-86
2023/08/13 04:34:24;;;;;;;7.17;4.13;;;17.20;1.00;;;;;;4967040;28;20196;-85
2023/08/13 04:36:50;;;;;;;8.87;4.30;;;17.30;1.00;;;;;;4989952;28;20185;-83
2023/08/13 04:39:15;;;;;;;11.53;4.40;;;17.30;16.80;;;;;;4965836;28;20214;-85
2023/08/13 04:41:41;;;;;;;8.90;4.30;;;17.40;1.00;;;;;;4965503;28;20593;-84
2023/08/13 04:44:06;;;;;;;15.37;4.50;;;17.40;1.00;;;;;;4974002;28;20221;-85
2023/08/13 04:46:32;;;;;;;17.80;4.67;;;17.50;1.00;;;;;;4978654;28;20570;-83
2023/08/13 04:48:58;;;;;;;10.23;4.13;;;17.50;1.00;;;;;;4965834;28;20218;-83
2023/08/13 04:51:24;;;;;;;9.93;4.53;;;17.60;1.00;;;;;;4981597;28;20190;-83
2023/08/13 04:53:50;;;;;;;8.73;4.60;;;17.60;1.00;;;;;;4968027;28;20471;-83
2023/08/13 04:56:15;;;;;;;9.33;4.73;;;17.70;99.90;;;;;;4972995;28;20442;-84
2023/08/13 04:58:42;;;;;;;9.43;5.47;;;17.80;99.90;;;;;;4964767;28;20207;-85
2023/08/13 05:01:07;;;;;;;5.40;3.87;;;17.80;99.90;;;;;;4966655;28;20196;-86
2023/08/13 05:03:33;;;;;;;9.87;4.27;;;17.90;99.90;;;;;;4977452;28;20945;-84
2023/08/13 05:06:02;;;;;;;8.17;4.03;;;18.00;1.00;;;;;;4973132;28;20195;-85
2023/08/13 05:08:27;;;;;;;6.60;4.17;;;18.10;1.00;;;;;;4970614;28;20266;-83
2023/08/13 05:10:53;;;;;;;7.27;3.90;;;18.20;99.90;;;;;;4978241;28;20454;-84
2023/08/13 05:13:29;;;;;;;8.00;3.80;;;18.30;39.10;;;;;;4973203;28;20173;-85
2023/08/13 05:15:54;;;;;;;10.70;4.30;;;18.40;1.00;;;;;;4974493;28;20188;-85
2023/08/13 05:18:20;;;;;;;7.97;4.10;;;18.40;1.00;;;;;;4981684;28;20506;-85
2023/08/13 05:20:46;;;;;;;9.40;3.80;;;18.40;99.90;;;;;;4970972;28;20641;-84
2023/08/13 05:23:11;;;;;;;12.33;5.17;;;18.50;99.90;;;;;;4972475;28;20192;-84
2023/08/13 05:25:38;;;;;;;10.50;3.87;;;18.50;99.90;;;;;;4976125;28;20497;-86
2023/08/13 05:28:06;;;;;;;6.37;3.37;;;18.60;1.00;;;;;;4976663;28;20224;-85
2023/08/13 05:30:32;;;;;;;8.17;3.87;;;18.60;1.00;;;;;;4974636;28;20494;-83
2023/08/13 05:32:58;;;;;;;8.67;3.97;;;18.70;1.00;;;;;;4980750;28;20451;-84
2023/08/13 05:35:23;;;;;;;7.90;3.30;;;18.70;99.90;;;;;;4973459;28;20442;-85
2023/08/13 05:37:49;;;;;;;8.23;3.67;;;18.70;99.90;;;;;;4978082;28;20268;-85
2023/08/13 05:40:15;;;;;;;8.23;3.77;;;18.80;41.90;;;;;;4970794;28;20220;-85
2023/08/13 05:42:40;;;;;;;11.83;4.20;;;18.90;1.00;;;;;;4970109;28;20721;-85
2023/08/13 05:45:06;;;;;;;6.57;3.57;;;19.00;1.00;;;;;;4984632;28;20247;-86
2023/08/13 05:47:32;;;;;;;9.47;3.83;;;19.20;99.90;;;;;;4970172;28;20220;-85
2023/08/13 05:49:57;;;;;;;6.03;2.90;;;19.40;99.90;;;;;;4975444;28;20459;-84
2023/08/13 05:52:24;;;;;;;9.00;3.30;;;19.80;1.00;;;;;;4981206;28;20212;-84
2023/08/13 05:54:49;;;;;;;8.70;4.10;;;20.00;99.90;;;;;;4975541;28;20238;-85
2023/08/13 05:57:15;;;;;;;6.67;3.80;;;20.20;99.90;;;;;;4983413;28;20521;-85
2023/08/13 05:59:42;;;;;;;6.90;3.30;;;22.20;1.00;;;;;;4973894;28;20220;-86
2023/08/13 06:02:08;;;;;;;4.93;2.90;;;22.60;59.20;;;;;;4966734;28;20239;-84
2023/08/13 06:04:36;;;;;;;6.80;3.23;;;22.40;31.30;;;;;;4971144;28;20434;-83
2023/08/13 06:07:03;;;;;;;9.07;3.50;;;22.10;33.30;;;;;;4975152;28;20240;-84
2023/08/13 06:09:30;;;;;;;8.70;3.30;;;21.80;70.30;;;;;;4966482;28;20592;-82
2023/08/13 06:11:55;;;;;;;7.00;3.13;;;21.60;94.40;;;;;;4968706;28;20446;-83
2023/08/13 06:14:21;;;;;;;5.83;3.20;;;21.50;99.90;;;;;;4968470;28;20430;-84
2023/08/13 06:16:46;;;;;;;4.80;2.90;;;21.40;99.90;;;;;;4963396;28;20665;-83
2023/08/13 06:19:12;;;;;;;6.47;3.27;;;21.30;99.90;;;;;;4972272;28;20637;-83
2023/08/13 06:21:38;;;;;;;7.10;3.93;;;21.20;99.90;;;;;;4970135;28;20193;-83
2023/08/13 06:24:05;;;;;;;6.50;3.47;;;21.20;99.90;;;;;;4964754;28;20187;-84
2023/08/13 06:26:34;;;;;;;6.63;3.00;;;21.40;99.90;;;;;;4975502;28;20360;-83
2023/08/13 06:28:59;;;;;;;9.37;3.40;;;21.50;99.90;;;;;;4973057;28;20462;-84
2023/08/13 06:31:25;;;;;;;11.27;3.90;;;21.60;99.90;;;;;;4967450;28;20446;-83
2023/08/13 06:33:51;;;;;;;8.73;4.13;;;21.70;99.90;;;;;;4971487;28;20178;-83
2023/08/13 06:36:16;;;;;;;8.40;3.43;;;21.80;99.90;;;;;;4956696;28;20824;-83
2023/08/13 06:38:42;;;;;;;7.50;3.30;;;21.80;99.90;;;;;;4965567;28;20171;-83
2023/08/13 06:41:08;;;;;;;10.60;4.20;;;21.70;99.90;;;;;;4959638;28;20257;-84
2023/08/13 06:43:33;;;;;;;7.13;3.50;;;21.70;99.90;;;;;;4955497;28;20424;-84
2023/08/13 06:46:00;;;;;;;6.43;3.20;;;21.70;95.40;;;;;;4961020;28;20187;-84
2023/08/13 06:48:27;;;;;;;7.27;3.20;;;21.80;88.20;;;;;;4928502;28;1043245;-84
2023/08/13 06:50:56;;;;;;;4.50;2.97;;;21.90;64.60;;;;;;4961597;28;20238;-83
2023/08/13 06:53:22;;;;;;;8.50;4.03;;;22.00;56.30;;;;;;4960904;28;20494;-83
2023/08/13 06:55:48;;;;;;;7.03;3.33;;;22.00;34.90;;;;;;4960741;28;20449;-83
2023/08/13 06:58:14;;;;;;;6.97;3.20;;;22.10;38.20;;;;;;4958341;28;20427;-84
2023/08/13 07:00:41;;;;;;;8.73;3.40;;;22.30;27.20;;;;;;4959860;28;20204;-83
2023/08/13 07:03:10;;;;;;;13.10;3.60;;;22.40;1.00;;;;;;4974097;28;20429;-84
2023/08/13 07:05:36;;;;;;;6.43;3.30;;;22.60;1.00;;;;;;4970117;28;20451;-83
2023/08/13 07:08:02;;;;;;;7.77;3.23;;;23.10;1.00;;;;;;4982728;28;20858;-84
2023/08/13 07:10:28;;;;;;;6.93;3.13;;;23.50;1.00;;;;;;4965596;28;20454;-83
2023/08/13 07:12:54;;;;;;;4.93;2.87;;;24.10;1.00;;;;;;4976357;28;20811;-85
2023/08/13 07:15:20;;;;;;;7.83;2.90;;;25.20;1.00;;;;;;4978722;28;20428;-84
2023/08/13 07:17:45;;;;;;;6.20;2.40;;;27.90;1.00;;;;;;4971949;28;20195;-83
2023/08/13 07:20:13;;;;;;;9.40;2.90;;;32.20;1.00;;;;;;4978581;28;20231;-85
2023/08/13 07:22:41;;;;;;;5.37;1.90;;;35.00;1.00;;;;;;4976359;28;20307;-85
2023/08/13 07:25:08;;;;;;;4.10;2.17;;;36.90;1.00;;;;;;4969875;28;20965;-85
2023/08/13 07:27:34;;;;;;;6.93;2.00;;;38.80;1.00;;;;;;4961960;28;20478;-87
2023/08/13 07:30:00;;;;;;;5.80;2.20;;;40.50;1.00;;;;;;4954426;28;20440;-83
2023/08/13 07:32:26;;;;;;;5.40;2.00;;;40.70;99.90;;;;;;4981004;28;20890;-83
2023/08/13 07:34:52;;;;;;;8.50;2.43;;;40.70;99.90;;;;;;4964876;28;20475;-82
2023/08/13 07:37:17;;;;;;;5.83;1.90;;;39.50;99.90;;;;;;4962253;28;20520;-84
2023/08/13 07:39:43;;;;;;;5.97;2.33;;;37.60;99.90;;;;;;4960977;28;20215;-83
2023/08/13 07:42:09;;;;;;;3.87;1.63;;;34.70;99.90;;;;;;4954017;28;20255;-83
2023/08/13 07:44:35;;;;;;;6.30;2.00;;;33.30;99.90;;;;;;4963064;28;20464;-83
2023/08/13 07:47:01;;;;;;;3.83;2.27;;;31.80;99.90;;;;;;4958191;28;20259;-85
2023/08/13 07:49:27;;;;;;;8.47;2.57;;;30.80;99.90;;;;;;4960024;28;20492;-85
2023/08/13 07:51:53;;;;;;;7.23;2.20;;;32.20;99.90;;;;;;4967085;28;20192;-84
2023/08/13 07:54:20;;;;;;;6.43;1.97;;;33.50;99.90;;;;;;4954714;28;20192;-85
2023/08/13 07:56:46;;;;;;;6.33;1.90;;;35.60;99.90;;;;;;4962152;28;20273;-87
2023/08/13 07:59:11;;;;;;;7.03;2.00;;;38.00;99.90;;;;;;4958816;28;21003;-85
2023/08/13 08:01:37;;;;;;;6.07;1.90;;;38.40;99.90;;;;;;4966964;28;20193;-86
2023/08/13 08:04:03;;;;;;;5.03;1.80;;;38.60;99.90;;;;;;4968395;28;20278;-83
2023/08/13 08:06:29;;;;;;;8.20;1.97;;;39.30;99.90;;;;;;4966184;28;20188;-83
2023/08/13 08:08:55;;;;;;;6.23;1.90;;;39.70;99.90;;;;;;4955842;28;20535;-85
2023/08/13 08:11:20;;;;;;;4.60;1.83;;;37.70;99.90;;;;;;4962847;28;20206;-86
2023/08/13 08:13:46;;;;;;;5.03;1.50;;;36.90;99.90;;;;;;4961241;28;20219;-84
2023/08/13 08:16:11;;;;;;;3.30;1.50;;;37.40;99.90;;;;;;4955438;28;20685;-85
2023/08/13 08:18:37;;;;;;;3.00;1.40;;;37.50;99.90;;;;;;4957647;28;20192;-86
2023/08/13 08:21:02;;;;;;;3.97;1.50;;;38.00;99.90;;;;;;4963802;28;20193;-85
2023/08/13 08:23:28;;;;;;;6.20;1.40;;;38.90;99.90;;;;;;4962124;28;20196;-86
2023/08/13 08:25:53;;;;;;;3.60;1.40;;;39.80;99.90;;;;;;4956022;28;20200;-86
2023/08/13 08:28:19;;;;;;;4.50;1.60;;;41.30;99.90;;;;;;4959070;28;20693;-81
2023/08/13 08:30:44;;;;;;;3.83;1.67;;;42.10;99.90;;;;;;4966285;28;20223;-85
2023/08/13 08:33:10;;;;;;;4.30;1.67;;;41.50;99.90;;;;;;4967089;28;20192;-83
2023/08/13 08:35:36;;;;;;;4.20;1.50;;;42.10;99.90;;;;;;4977605;28;20180;-84
2023/08/13 08:38:02;;;;;;;3.13;1.63;;;42.00;99.90;;;;;;4960058;28;20271;-86
2023/08/13 08:40:27;;;;;;;3.90;1.47;;;41.50;99.90;;;;;;4969755;28;20208;-86
2023/08/13 08:42:53;;;;;;;4.57;1.80;;;40.60;99.90;;;;;;4968186;28;20218;-85
2023/08/13 08:45:21;;;;;;;6.47;1.60;;;39.40;99.90;;;;;;4963065;28;20188;-85
2023/08/13 08:47:50;;;;;;;3.37;1.40;;;38.70;99.90;;;;;;4960376;28;20468;-84
2023/08/13 08:50:17;;;;;;;6.43;1.47;;;38.00;99.90;;;;;;4969071;28;20460;-85
2023/08/13 08:52:42;;;;;;;5.97;1.53;;;37.80;99.90;;;;;;4966665;28;20435;-83
2023/08/13 08:55:11;;;;;;;4.77;1.40;;;38.50;99.90;;;;;;4969077;28;20960;-85
2023/08/13 08:57:38;;;;;;;4.30;1.70;;;38.00;99.90;;;;;;4962176;28;20193;-83
2023/08/13 09:00:04;;;;;;;3.37;1.30;;;38.00;99.90;;;;;;4974526;28;20458;-85
2023/08/13 09:02:30;;;;;;;5.47;1.67;;;37.90;99.90;;;;;;4973185;28;20435;-83
2023/08/13 09:04:57;;;;;;;5.03;1.63;;;38.00;99.90;;;;;;4970261;28;20506;-84
2023/08/13 09:07:30;;;;;;;4.50;1.97;;;38.30;99.90;;;;;;4968489;28;20463;-85
2023/08/13 09:09:56;;;;;;;2.27;1.13;;;37.50;99.90;;;;;;4969063;28;20527;-84
2023/08/13 09:12:22;;;;;;;3.93;1.60;;;37.40;99.90;;;;;;4970268;28;20880;-84
2023/08/13 09:14:47;;;;;;;6.30;1.50;;;36.60;99.90;;;;;;4965680;28;20189;-83
2023/08/13 09:17:13;;;;;;;3.57;1.40;;;35.70;99.90;;;;;;4973002;28;20266;-84
2023/08/13 09:19:38;;;;;;;5.27;1.70;;;34.60;99.90;;;;;;4958106;28;20201;-84
2023/08/13 09:22:06;;;;;;;7.30;1.90;;;34.40;99.90;;;;;;4964223;28;20269;-83
2023/08/13 09:24:36;;;;;;;6.80;1.70;;;33.80;99.90;;;;;;4959224;28;20224;-84
2023/08/13 09:27:04;;;;;;;4.07;1.77;;;33.30;99.90;;;;;;4976424;28;20479;-85
2023/08/13 09:29:30;;;;;;;10.10;2.17;;;33.10;99.90;;;;;;4964803;28;20879;-85
2023/08/13 09:31:57;;;;;;;6.60;2.20;;;32.60;99.90;;;;;;4974261;28;20428;-85
2023/08/13 09:34:24;;;;;;;8.60;2.03;;;32.40;99.90;;;;;;4965835;28;20435;-85
2023/08/13 09:36:53;;;;;;;5.00;2.00;;;33.10;99.90;;;;;;4971808;28;20925;-83
2023/08/13 09:39:18;;;;;;;6.60;2.00;;;33.20;99.90;;;;;;4957614;28;20816;-83
2023/08/13 09:41:46;;;;;;;6.80;1.47;;;33.40;99.90;;;;;;4960403;28;20439;-85
2023/08/13 09:44:14;;;;;;;4.00;1.77;;;33.80;99.90;;;;;;4965397;28;20185;-85
2023/08/13 09:46:41;;;;;;;5.13;1.90;;;34.30;99.90;;;;;;4966853;28;20451;-83
2023/08/13 09:49:09;;;;;;;8.40;2.30;;;35.50;99.90;;;;;;4979955;28;20443;-84
2023/08/13 09:51:38;;;;;;;5.93;2.23;;;36.10;99.90;;;;;;4956831;28;20443;-85
2023/08/13 09:54:13;;;;;;;4.20;1.80;;;36.10;99.90;;;;;;4973302;28;20416;-83
2023/08/13 09:56:42;;;;;;;5.03;2.40;;;36.50;99.90;;;;;;4978167;28;20423;-83
2023/08/13 09:59:08;;;;;;;6.03;1.73;;;36.80;99.90;;;;;;4970540;28;20456;-84
2023/08/13 10:01:34;;;;;;;4.37;1.57;;;37.20;99.90;;;;;;4972100;28;20798;-85
2023/08/13 10:04:00;;;;;;;7.03;2.33;;;37.00;99.90;;;;;;4960992;28;20195;-84
2023/08/13 10:06:26;;;;;;;4.80;1.90;;;37.70;99.90;;;;;;4970276;28;20420;-85
2023/08/13 10:08:52;;;;;;;6.57;2.43;;;38.40;99.90;;;;;;4956486;28;20582;-86
2023/08/13 10:11:18;;;;;;;6.90;1.70;;;38.40;99.90;;;;;;4957871;28;20169;-84
2023/08/13 10:13:45;;;;;;;7.03;2.00;;;37.90;99.90;;;;;;4958102;28;20432;-84
2023/08/13 10:16:12;;;;;;;7.37;2.40;;;37.30;99.90;;;;;;4957585;28;20420;-84
2023/08/13 10:18:38;;;;;;;6.30;1.83;;;37.30;99.90;;;;;;4957929;28;20527;-86
2023/08/13 10:21:03;;;;;;;6.47;2.53;;;36.70;99.90;;;;;;4972934;28;20885;-83
2023/08/13 10:23:29;;;;;;;5.73;1.67;;;36.40;99.90;;;;;;4978716;28;20662;-84
2023/08/13 10:25:55;;;;;;;7.83;2.13;;;36.20;99.90;;;;;;4981258;28;20561;-85
2023/08/13 10:28:28;;;;;;;4.33;1.80;;;35.80;99.90;;;;;;4974978;28;20241;-84
2023/08/13 10:31:25;;;;;;;6.07;2.33;;;35.70;99.90;;;;;;4968426;28;20459;-84
2023/08/13 10:34:07;;;;;;;5.07;1.90;;;35.50;99.90;;;;;;4971186;28;20511;-84
2023/08/13 10:36:53;;;;;;;5.70;2.20;;;35.20;99.90;;;;;;4969153;28;20550;-82
2023/08/13 10:39:32;;;;;;;5.70;2.30;;;34.90;99.90;;;;;;4961275;28;20467;-84
2023/08/13 10:41:58;;;;;;;7.00;2.73;;;35.80;99.90;;;;;;4961551;28;20440;-85
2023/08/13 10:44:28;;;;;;;4.63;2.43;;;36.50;99.90;;;;;;4962786;28;20431;-85
2023/08/13 10:46:54;;;;;;;7.30;2.00;;;36.60;99.90;;;;;;4957770;28;20211;-85
2023/08/13 10:49:21;;;;;;;5.50;1.73;;;36.70;99.90;;;;;;4964852;28;20463;-86
2023/08/13 10:51:50;;;;;;;6.90;2.00;;;36.70;99.90;;;;;;4967843;28;20498;-85
2023/08/13 10:54:16;;;;;;;8.30;6.03;;;36.80;99.90;;;;;;4959758;28;20966;-84
2023/08/13 10:56:42;;;;;;;22.37;19.97;;;36.60;99.90;;;;;;4957118;28;20449;-85
2023/08/13 10:59:08;;;;;;;5.70;2.50;;;37.40;99.90;;;;;;4953227;28;20463;-85
2023/08/13 11:01:34;;;;;;;7.73;1.97;;;38.60;99.90;;;;;;4966451;28;20267;-86
2023/08/13 11:04:03;;;;;;;4.77;2.30;;;39.90;99.90;;;;;;4964041;28;20634;-86
2023/08/13 11:06:28;;;;;;;5.30;2.73;;;39.80;99.90;;;;;;4967295;28;20184;-87
2023/08/13 11:08:55;;;;;;;6.60;3.80;;;39.80;99.90;;;;;;4953008;28;20563;-84
2023/08/13 11:11:20;;;;;;;8.30;2.00;;;39.80;99.90;;;;;;4961444;28;20289;-86
2023/08/13 11:13:47;;;;;;;5.30;2.83;;;38.00;99.90;;;;;;4964637;28;20477;-85
2023/08/13 11:16:13;;;;;;;4.97;2.13;;;37.90;99.90;;;;;;4961990;28;20700;-86
2023/08/13 11:18:39;;;;;;;6.57;2.40;;;38.10;99.90;;;;;;4960355;28;20440;-85
2023/08/13 11:21:05;;;;;;;6.03;2.53;;;38.30;99.90;;;;;;4966777;28;20189;-85
2023/08/13 11:23:31;;;;;;;6.73;2.60;;;38.30;99.90;;;;;;4977913;28;20185;-87
2023/08/13 11:25:57;;;;;;;6.83;1.97;;;38.10;99.90;;;;;;4968677;28;20454;-85
2023/08/13 11:28:24;;;;;;;7.50;2.10;;;37.70;99.90;;;;;;4962321;28;20315;-84
2023/08/13 11:30:52;;;;;;;8.47;2.60;;;36.80;99.90;;;;;;4962996;28;20204;-84
2023/08/13 11:33:18;;;;;;;6.40;2.50;;;35.40;99.90;;;;;;4962323;28;20491;-86
2023/08/13 11:35:45;;;;;;;6.93;2.40;;;34.90;99.90;;;;;;4967623;28;20576;-87
2023/08/13 11:38:10;;;;;;;6.87;2.10;;;34.50;99.90;;;;;;4968807;28;20551;-82
2023/08/13 11:40:36;;;;;;;7.70;2.37;;;34.80;99.90;;;;;;4962089;28;20455;-86
2023/08/13 11:43:03;;;;;;;7.20;2.13;;;35.20;99.90;;;;;;4964676;28;20207;-85
2023/08/13 11:45:31;;;;;;;7.23;2.27;;;35.40;99.90;;;;;;4959380;28;20185;-86
2023/08/13 11:48:10;;;;;;;5.00;2.30;;;35.60;99.90;;;;;;4954104;28;20471;-83
2023/08/13 11:50:40;;;;;;;4.90;2.07;;;35.40;99.90;;;;;;4959126;28;20460;-84
2023/08/13 11:53:09;;;;;;;8.27;1.97;;;34.60;99.90;;;;;;4964350;28;20446;-84
2023/08/13 11:55:36;;;;;;;7.67;2.47;;;33.50;99.90;;;;;;4966472;28;20435;-84
2023/08/13 11:58:02;;;;;;;8.00;2.97;;;32.90;99.90;;;;;;4968020;28;20431;-84
2023/08/13 12:00:28;;;;;;;6.60;2.43;;;31.60;99.90;;;;;;4962796;28;20443;-82
2023/08/13 12:02:55;;;;;;;5.07;2.53;;;31.10;99.90;;;;;;4965667;28;20204;-83
2023/08/13 12:05:29;;;;;;;5.63;2.20;;;31.00;99.90;;;;;;4967863;28;20263;-87
2023/08/13 12:07:59;;;;;;;9.47;3.13;;;31.20;99.90;;;;;;4963541;28;20483;-84
2023/08/13 12:10:25;;;;;;;8.90;2.80;;;30.40;99.90;;;;;;4955394;28;20840;-84
2023/08/13 12:12:51;;;;;;;7.80;2.60;;;31.40;99.90;;;;;;4964218;28;20440;-84
2023/08/13 12:15:21;;;;;;;4.90;2.20;;;32.50;99.90;;;;;;4961217;28;20467;-85
2023/08/13 12:17:46;;;;;;;5.60;2.57;;;33.10;99.90;;;;;;4959452;28;20201;-84
2023/08/13 12:20:12;;;;;;;5.40;1.93;;;33.80;99.90;;;;;;4964951;28;20511;-86
2023/08/13 12:22:39;;;;;;;4.57;1.77;;;34.70;99.90;;;;;;4962315;28;20176;-83
2023/08/13 12:25:05;;;;;;;4.37;1.93;;;35.20;99.90;;;;;;4971706;28;20534;-88
2023/08/13 12:27:31;;;;;;;4.93;1.90;;;35.50;99.90;;;;;;4962220;28;20557;-85
2023/08/13 12:29:57;;;;;;;3.73;1.57;;;35.70;99.90;;;;;;4963767;28;20469;-85
2023/08/13 12:32:22;;;;;;;8.33;1.80;;;36.10;99.90;;;;;;4977423;28;20870;-85
2023/08/13 12:34:48;;;;;;;3.40;1.67;;;36.40;99.90;;;;;;4957561;28;20212;-84
2023/08/13 12:37:14;;;;;;;4.37;1.50;;;36.60;99.90;;;;;;4962563;28;20567;-84
2023/08/13 12:39:39;;;;;;;2.93;1.67;;;36.60;99.90;;;;;;4967908;28;20296;-82
2023/08/13 12:42:05;;;;;;;5.00;1.60;;;36.60;99.90;;;;;;4973537;28;20192;-85
2023/08/13 12:44:30;;;;;;;6.10;1.70;;;36.70;99.90;;;;;;4964273;28;20692;-84